Airfield :
LOGIN :

Register | Disclaimer

   EN    FR    IT 

 










Legend :    VFR   Marginal VFR   IFR   Intensive IFR   Very Intensive IFR
Visi :
Ceiling :
>= 8 km
>= 3000ft
5 to 8 km
1000 to 3000 ft
1500m to 5 km
500 to 1000 ft
800 to 1500m
200 to 500 ft
< 800m
< 200 ft
Symbols :   Thunderstorms  Fog  Heavy snow  Heavy precipitations  Wind > 20 kt
SIGMETs :     Misc.  Thunderstorms  Icing  Turbulence  Mountain Waves  Volcanic Ashes






- Airport Elevation : 268 ft
- IATA code : BFS


EGAA - Belfast Aldergrove

CURRENT METAR :
  • 290920Z AUTO 08008KT 9999 FEW029 BKN045 11/05 Q1024

EXPIRED METARs :
  • 290850Z AUTO 05011KT 9999 SCT029 SCT033 BKN047 12/05 Q1024
  • 290820Z AUTO 05010KT 9999 FEW026 11/06 Q1024
  • 290750Z AUTO 06007KT 9999 FEW027 BKN034 11/07 Q1024
  • 290720Z AUTO 04007KT 9999 SCT026 BKN032 BKN041 10/07 Q1024
  • 290650Z AUTO 05006KT 9999 FEW016 SCT044 09/07 Q1024

TAF TAF EGAA
Valid from the 29 at 06:00 until the 30 at 06:00 UTC


290455Z 2906/3006 05008KT 9999 FEW020 SCT035
PROB30
TEMPO 2906/2907 BKN012
BECMG 2912/2916 35012KT
PROB30
TEMPO 2918/2921 8000 SHRA
PROB40
TEMPO 2921/3003 7000 SHRA BKN014
TEMPO 3003/3006 7000 SHRA SCT008 BKN014



MET'MAP, your aeronautical weather chart ! - Copyright ORBIFLY December 2007 - Disclaimer

ORBIFLY MET'MAP TEAM :

Programming & Development : Alexandra Zaïnal
Original concept : Baudouin d'Aumeries
Technical & hardware support : Manuel Goepfert
Assistance : Marc-Olivier Méhu

Contact : metmap@orbifly.com




SOURCES & CREDITS :

   NOAA